(°C)
28°
28°
29°
29°
30°
30°
29°
(°C)
33°
34°
34°
34°
34°
32°
32°
E
ESE
ESE
SE
SSE
SSE
SSE
(km/h)
4-8
3-8
3-8
4-9
4-9
4-10
5-10
(mm)
0
0
0
0
0
0
0
(%)
3
4
5
5
4
4
3

Elevazione del sole

/ 70.8°
sun-icon
UV 6
06:19
20:35
Luna piena (171°)
20:43
05:27

METAR per Winston-Salem (KINT)

Ora Condizioni Temperatura/
Punto di rugiada
Vento Visibilità Tempo Nuvole Pressione Cambiamento Grezzo
VFR 27.2°C / 19.4°C 160º 4kt >10km - Broken Clouds 4300ft 1021 - KINT 231554Z 16004KT 9SM BKN043 27/19 A3021 RMK AO2 SLP217 T02720194
VFR 26.1°C / 20°C variable 0kt >10km - Few Clouds 2600ft 1021 - KINT 231454Z 00000KT 8SM FEW026 SCT045 26/20 A3021 RMK AO2 SLP219 T02610200 50005
VFR 24.4°C / 20°C variable 0kt >10km - Few Clouds 4600ft 1022 - KINT 231354Z 00000KT 7SM FEW046 24/20 A3022 RMK AO2 SLP222 T02440200
VFR 22.8°C / 18.9°C variable 0kt >10km - Clear 1022 - KINT 231254Z 00000KT 8SM CLR 23/19 A3021 RMK AO2 SLP220 T02280189
VFR 20.6°C / 18.3°C 360º 5kt 9700m Mist Vertical Visibility of 0ft. 1021 - KINT 231154Z 36005KT 6SM BR CLR 21/18 A3020 RMK AO2 SLP215 T02060183 10211 20194 53013
VFR 20.6°C / 18.3°C 20º 3kt 9700m Mist Vertical Visibility of 0ft. - KINT 231137Z 02003KT 6SM BR SCT006 SCT044 21/18 A3019 RMK AO2 T02060183
IFR 20°C / 17.8°C 20º 3kt 9700m Mist Vertical Visibility of 0ft. 1021 - KINT 231054Z 02003KT 6SM BR OVC007 20/18 A3018 RMK AO2 SLP210 T02000178
IFR 20°C / 17.8°C 20º 3kt 9700m Mist Vertical Visibility of 0ft. - KINT 231038Z AUTO 02003KT 6SM BR BKN007 20/18 A3018 RMK AO2 T02000178
VFR 19.4°C / 17.2°C 360º 3kt >10km - Scattered Clouds 800ft - KINT 231013Z AUTO 36003KT 8SM SCT008 19/17 A3017 RMK AO2 T01940172
IFR 20°C / 17.8°C 360º 3kt >10km - Overcast 800ft 1020 - KINT 230954Z AUTO 36003KT 9SM OVC008 20/18 A3017 RMK AO2 SLP204 T02000178
IFR 20°C / 17.8°C 350º 3kt >10km - Broken Clouds 800ft - KINT 230938Z AUTO 35003KT 8SM BKN008 20/18 A3016 RMK AO2 T02000178
VFR 19.4°C / 17.2°C variable 0kt >10km - Scattered Clouds 900ft - KINT 230926Z AUTO 00000KT 8SM SCT009 19/17 A3016 RMK AO2 T01940172
VFR 20°C / 17.2°C 350º 4kt >10km - Clear 1020 - KINT 230854Z AUTO 35004KT 9SM CLR 20/17 A3016 RMK AO2 SLP201 T02000172 55006
VFR 19.4°C / 16.7°C variable 0kt >10km - Clear 1020 - KINT 230754Z AUTO 00000KT 9SM CLR 19/17 A3015 RMK AO2 SLP200 T01940167
VFR 19.4°C / 17.2°C variable 0kt >10km - Clear 1020 - KINT 230654Z AUTO 00000KT 9SM CLR 19/17 A3017 RMK AO2 SLP204 T01940172
VFR 20.6°C / 16.7°C 350º 3kt >10km - Clear 1020 - KINT 230554Z AUTO 35003KT 10SM CLR 21/17 A3018 RMK AO2 SLP207 T02060167 10267 20206 58003
VFR 21.7°C / 17.2°C 30º 3kt >10km - Clear 1021 - KINT 230454Z AUTO 03003KT 10SM CLR 22/17 A3019 RMK AO2 SLP211 T02170172 402940200
VFR 21.7°C / 17.2°C variable 0kt >10km - Clear 1021 - KINT 230354Z AUTO 00000KT 10SM CLR 22/17 A3019 RMK AO2 SLP212 T02170172
VFR 23.3°C / 17.2°C variable 0kt >10km - Clear 1021 - KINT 230254Z AUTO 00000KT 10SM CLR 23/17 A3019 RMK AO2 SLP210 T02330172 53009
VFR 24.4°C / 16.7°C variable 0kt >10km - Clear 1020 - KINT 230154Z AUTO 00000KT 10SM CLR 24/17 A3017 RMK AO2 SLP206 T02440167
VFR 25°C / 16.7°C 70º 3kt >10km - Clear 1020 - KINT 230054Z 07003KT 10SM CLR 25/17 A3016 RMK AO2 SLP201 T02500167
VFR 26.7°C / 16.7°C 90º 4kt >10km - Clear 1020 - KINT 222354Z 09004KT 10SM CLR 27/17 A3016 RMK AO2 SLP200 T02670167 10294 20267 53008
VFR 27.8°C / 16.1°C 90º 4kt >10km - Clear 1019 - KINT 222254Z 09004KT 10SM CLR 28/16 A3014 RMK AO2 SLP195 T02780161
VFR 28.3°C / 17.2°C 100º 7kt >10km - Clear 1019 - KINT 222154Z 10007KT 10SM CLR 28/17 A3013 RMK AO2 SLP192 T02830172

VFR

27.2°C / 19.4°C

[Più]
Vento 160º 4kt
Visibilità >10km
Tempo -
Nuvole Broken Clouds 4300ft
Pressione 1021
Cambiamento -
Grezzo KINT 231554Z 16004KT 9SM BKN043 27/19 A3021 RMK AO2 SLP217 T02720194

VFR

26.1°C / 20°C

[Più]
Vento variable 0kt
Visibilità >10km
Tempo -
Nuvole Few Clouds 2600ft
Pressione 1021
Cambiamento -
Grezzo KINT 231454Z 00000KT 8SM FEW026 SCT045 26/20 A3021 RMK AO2 SLP219 T02610200 50005

VFR

24.4°C / 20°C

[Più]
Vento variable 0kt
Visibilità >10km
Tempo -
Nuvole Few Clouds 4600ft
Pressione 1022
Cambiamento -
Grezzo KINT 231354Z 00000KT 7SM FEW046 24/20 A3022 RMK AO2 SLP222 T02440200

VFR

22.8°C / 18.9°C

[Più]
Vento variable 0kt
Visibilità >10km
Tempo -
Nuvole Clear
Pressione 1022
Cambiamento -
Grezzo KINT 231254Z 00000KT 8SM CLR 23/19 A3021 RMK AO2 SLP220 T02280189

VFR

20.6°C / 18.3°C

[Più]
Vento 360º 5kt
Visibilità 9700m
Tempo Mist
Nuvole Vertical Visibility of 0ft.
Pressione 1021
Cambiamento -
Grezzo KINT 231154Z 36005KT 6SM BR CLR 21/18 A3020 RMK AO2 SLP215 T02060183 10211 20194 53013

VFR

20.6°C / 18.3°C

[Più]
Vento 20º 3kt
Visibilità 9700m
Tempo Mist
Nuvole Vertical Visibility of 0ft.
Pressione
Cambiamento -
Grezzo KINT 231137Z 02003KT 6SM BR SCT006 SCT044 21/18 A3019 RMK AO2 T02060183

IFR

20°C / 17.8°C

[Più]
Vento 20º 3kt
Visibilità 9700m
Tempo Mist
Nuvole Vertical Visibility of 0ft.
Pressione 1021
Cambiamento -
Grezzo KINT 231054Z 02003KT 6SM BR OVC007 20/18 A3018 RMK AO2 SLP210 T02000178

IFR

20°C / 17.8°C

[Più]
Vento 20º 3kt
Visibilità 9700m
Tempo Mist
Nuvole Vertical Visibility of 0ft.
Pressione
Cambiamento -
Grezzo KINT 231038Z AUTO 02003KT 6SM BR BKN007 20/18 A3018 RMK AO2 T02000178

VFR

19.4°C / 17.2°C

[Più]
Vento 360º 3kt
Visibilità >10km
Tempo -
Nuvole Scattered Clouds 800ft
Pressione
Cambiamento -
Grezzo KINT 231013Z AUTO 36003KT 8SM SCT008 19/17 A3017 RMK AO2 T01940172

IFR

20°C / 17.8°C

[Più]
Vento 360º 3kt
Visibilità >10km
Tempo -
Nuvole Overcast 800ft
Pressione 1020
Cambiamento -
Grezzo KINT 230954Z AUTO 36003KT 9SM OVC008 20/18 A3017 RMK AO2 SLP204 T02000178

IFR

20°C / 17.8°C

[Più]
Vento 350º 3kt
Visibilità >10km
Tempo -
Nuvole Broken Clouds 800ft
Pressione
Cambiamento -
Grezzo KINT 230938Z AUTO 35003KT 8SM BKN008 20/18 A3016 RMK AO2 T02000178

VFR

19.4°C / 17.2°C

[Più]
Vento variable 0kt
Visibilità >10km
Tempo -
Nuvole Scattered Clouds 900ft
Pressione
Cambiamento -
Grezzo KINT 230926Z AUTO 00000KT 8SM SCT009 19/17 A3016 RMK AO2 T01940172

VFR

20°C / 17.2°C

[Più]
Vento 350º 4kt
Visibilità >10km
Tempo -
Nuvole Clear
Pressione 1020
Cambiamento -
Grezzo KINT 230854Z AUTO 35004KT 9SM CLR 20/17 A3016 RMK AO2 SLP201 T02000172 55006

VFR

19.4°C / 16.7°C

[Più]
Vento variable 0kt
Visibilità >10km
Tempo -
Nuvole Clear
Pressione 1020
Cambiamento -
Grezzo KINT 230754Z AUTO 00000KT 9SM CLR 19/17 A3015 RMK AO2 SLP200 T01940167

VFR

19.4°C / 17.2°C

[Più]
Vento variable 0kt
Visibilità >10km
Tempo -
Nuvole Clear
Pressione 1020
Cambiamento -
Grezzo KINT 230654Z AUTO 00000KT 9SM CLR 19/17 A3017 RMK AO2 SLP204 T01940172

VFR

20.6°C / 16.7°C

[Più]
Vento 350º 3kt
Visibilità >10km
Tempo -
Nuvole Clear
Pressione 1020
Cambiamento -
Grezzo KINT 230554Z AUTO 35003KT 10SM CLR 21/17 A3018 RMK AO2 SLP207 T02060167 10267 20206 58003

VFR

21.7°C / 17.2°C

[Più]
Vento 30º 3kt
Visibilità >10km
Tempo -
Nuvole Clear
Pressione 1021
Cambiamento -
Grezzo KINT 230454Z AUTO 03003KT 10SM CLR 22/17 A3019 RMK AO2 SLP211 T02170172 402940200

VFR

21.7°C / 17.2°C

[Più]
Vento variable 0kt
Visibilità >10km
Tempo -
Nuvole Clear
Pressione 1021
Cambiamento -
Grezzo KINT 230354Z AUTO 00000KT 10SM CLR 22/17 A3019 RMK AO2 SLP212 T02170172

VFR

23.3°C / 17.2°C

[Più]
Vento variable 0kt
Visibilità >10km
Tempo -
Nuvole Clear
Pressione 1021
Cambiamento -
Grezzo KINT 230254Z AUTO 00000KT 10SM CLR 23/17 A3019 RMK AO2 SLP210 T02330172 53009

VFR

24.4°C / 16.7°C

[Più]
Vento variable 0kt
Visibilità >10km
Tempo -
Nuvole Clear
Pressione 1020
Cambiamento -
Grezzo KINT 230154Z AUTO 00000KT 10SM CLR 24/17 A3017 RMK AO2 SLP206 T02440167

VFR

25°C / 16.7°C

[Più]
Vento 70º 3kt
Visibilità >10km
Tempo -
Nuvole Clear
Pressione 1020
Cambiamento -
Grezzo KINT 230054Z 07003KT 10SM CLR 25/17 A3016 RMK AO2 SLP201 T02500167

VFR

26.7°C / 16.7°C

[Più]
Vento 90º 4kt
Visibilità >10km
Tempo -
Nuvole Clear
Pressione 1020
Cambiamento -
Grezzo KINT 222354Z 09004KT 10SM CLR 27/17 A3016 RMK AO2 SLP200 T02670167 10294 20267 53008

VFR

27.8°C / 16.1°C

[Più]
Vento 90º 4kt
Visibilità >10km
Tempo -
Nuvole Clear
Pressione 1019
Cambiamento -
Grezzo KINT 222254Z 09004KT 10SM CLR 28/16 A3014 RMK AO2 SLP195 T02780161

VFR

28.3°C / 17.2°C

[Più]
Vento 100º 7kt
Visibilità >10km
Tempo -
Nuvole Clear
Pressione 1019
Cambiamento -
Grezzo KINT 222154Z 10007KT 10SM CLR 28/17 A3013 RMK AO2 SLP192 T02830172

TAF per Winston-Salem (KINT)

From till


From till Wind variable 5kt. Visibility 10km or more. Scattered Clouds 500ft. Scattered Clouds 4000ft. Broken Clouds 25000ft.
Temporarly from till Visibility 8000m. Mist . Broken Clouds 500ft.

Grezzo: KINT 231141Z 2311/2412 VRB05KT P6SM SCT005 SCT040 BKN250 TEMPO 2312/2314 5SM BR BKN005

rainNOW: Pioggia ora prevista per Winston-Salem e dintorni (raggio di 25 km)

0.0 mm
0.0 mm
0.0 mm
0.0 mm
0.0 mm
0.0 mm
0.0 mm
0.0 mm
0.0 mm
0.0 mm
0.0 mm
0.0 mm

Immagine satellitare per Winston-Salem, Stati Uniti

Il segnaposto è situato a Winston-Salem. [Più]

L'immagine satellitare in tempo reale combina la luce visibile durante il giorno con la radiazione infrarossa durante la notte. Di notte l'immagine non è scura poiché i raggi infrarossi possono rilevare differenze di temperatura. Purtroppo, le nuvole basse e la nebbia sono difficili da distinguere dalla temperatura del suolo e possono pertanto essere quasi invisibili durante la notte. Le immagini satellitari Meteosat per l'Europa vengono aggiornate in tempo reale ogni 5 minuti. Le immagini GOES-16 / GOES-17 (Nord e Sud America) e Himawari (Asia) vengono aggiornate ogni 10 minuti.

Radar e nowcasting per Winston-Salem

Pioggerella
Lieve
Moderato
Forte
Molto forte
Grandine

Il segnaposto è situato a Winston-Salem. Questa animazione mostra il radar delle precipitazioni per l'ultima ora, nonché una previsione 1h. Il radar può non individuare correttamente pioviggine o nevischio. L’intensità delle precipitazioni è associata a una scala di colori, dal blu chiaro fino al viola scuro.